createdAt,value
2023-04-01T00:00:23.530Z,4.50
2023-04-01T00:02:53.061Z,4.43
2023-04-01T00:05:21.158Z,3.90
2023-04-01T00:07:49.268Z,4.00
2023-04-01T00:10:17.104Z,4.30
2023-04-01T00:12:44.872Z,4.53
2023-04-01T00:15:13.860Z,4.20
2023-04-01T00:17:42.003Z,3.43
2023-04-01T00:20:12.497Z,3.30
2023-04-01T00:22:40.444Z,3.07
2023-04-01T00:25:09.472Z,3.20
2023-04-01T00:27:37.233Z,3.37
2023-04-01T00:30:06.618Z,2.90
2023-04-01T00:32:34.568Z,3.17
2023-04-01T00:35:02.379Z,3.30
2023-04-01T00:37:31.945Z,3.10
2023-04-01T00:40:00.159Z,3.43
2023-04-01T00:42:27.958Z,3.83
2023-04-01T00:44:56.894Z,3.50
2023-04-01T00:47:27.691Z,3.80
2023-04-01T00:49:56.934Z,3.67
2023-04-01T00:52:27.289Z,3.00
2023-04-01T00:54:59.172Z,2.90
2023-04-01T00:57:33.053Z,3.90
2023-04-01T01:00:01.294Z,3.63
2023-04-01T01:02:29.309Z,3.77
2023-04-01T01:04:57.076Z,3.83
2023-04-01T01:07:35.429Z,3.53
2023-04-01T01:10:13.480Z,3.37
2023-04-01T01:12:46.866Z,3.40
2023-04-01T01:15:22.382Z,3.03
2023-04-01T01:18:03.310Z,3.97
2023-04-01T01:21:21.876Z,3.77
2023-04-01T01:24:20.125Z,3.40
2023-04-01T01:27:01.612Z,3.37
2023-04-01T01:30:06.374Z,3.47
2023-04-01T01:32:52.070Z,3.43
2023-04-01T01:35:26.080Z,3.50
2023-04-01T01:37:57.769Z,3.40
2023-04-01T01:40:27.578Z,3.63
2023-04-01T01:43:02.082Z,3.40
2023-04-01T01:45:32.121Z,3.37
2023-04-01T08:04:20.002Z,7.30
2023-04-01T08:06:53.072Z,6.43
2023-04-01T08:09:30.337Z,6.67
2023-04-01T08:12:11.191Z,7.07
2023-04-01T08:14:50.282Z,7.23
2023-04-01T08:17:27.029Z,6.47
2023-04-01T08:20:10.459Z,7.13
2023-04-01T08:22:42.634Z,6.93
2023-04-01T08:25:18.885Z,6.13
2023-04-01T08:27:49.587Z,6.80
2023-04-01T08:30:21.074Z,6.03
2023-04-01T08:32:55.531Z,5.73
2023-04-01T08:35:32.609Z,7.10
2023-04-01T08:38:07.667Z,6.20
2023-04-01T08:40:57.246Z,6.13
2023-04-01T08:43:40.999Z,5.03
2023-04-01T08:46:21.823Z,5.43
2023-04-01T08:49:11.622Z,5.90
2023-04-01T08:52:06.042Z,5.20
2023-04-01T08:54:50.781Z,6.00
2023-04-01T08:57:31.018Z,6.43
2023-04-01T09:00:09.704Z,6.80
2023-04-01T09:03:04.928Z,7.70
2023-04-01T09:06:15.403Z,6.47
2023-04-01T09:09:02.364Z,7.00
2023-04-01T09:11:41.077Z,6.97
2023-04-01T09:14:51.344Z,7.17
2023-04-01T09:17:54.729Z,6.50
2023-04-01T09:20:49.829Z,6.53
2023-04-01T09:23:41.087Z,6.60
2023-04-01T09:26:23.559Z,7.13
2023-04-01T09:29:01.893Z,7.03
2023-04-01T09:31:52.743Z,6.63
2023-04-01T09:34:43.068Z,5.00
2023-04-01T09:37:22.604Z,5.13
2023-04-01T09:40:10.320Z,5.60
2023-04-01T09:42:51.150Z,4.87
2023-04-01T09:45:36.868Z,4.50
2023-04-01T09:48:17.006Z,4.73
2023-04-01T09:50:52.726Z,5.60
2023-04-01T09:53:36.131Z,5.30
2023-04-01T09:56:33.818Z,4.60
2023-04-01T09:59:44.284Z,4.60
2023-04-01T10:02:53.566Z,5.00
2023-04-01T10:06:08.818Z,4.77
2023-04-01T10:09:16.015Z,5.33
2023-04-01T10:12:09.563Z,4.07
2023-04-01T10:15:02.863Z,5.30
2023-04-01T10:17:50.665Z,4.07
2023-04-01T10:20:41.205Z,4.17
2023-04-01T10:23:42.774Z,5.07
2023-04-01T10:26:44.966Z,5.37
2023-04-01T10:29:50.214Z,4.93
2023-04-01T10:32:57.681Z,5.10
2023-04-01T10:35:49.297Z,5.13
2023-04-01T10:38:44.328Z,4.80
2023-04-01T10:41:48.259Z,4.83
2023-04-01T10:44:45.367Z,5.10
2023-04-01T10:47:39.493Z,6.10
2023-04-01T10:50:26.161Z,6.17
2023-04-01T10:53:18.479Z,6.10
2023-04-01T10:56:22.157Z,5.17
2023-04-01T10:59:37.582Z,5.73
2023-04-01T11:02:46.746Z,5.53
2023-04-01T11:06:00.350Z,5.07
2023-04-01T11:09:06.701Z,5.47
2023-04-01T11:12:06.204Z,5.67
2023-04-01T11:15:07.471Z,5.90
2023-04-01T11:18:00.269Z,6.17
2023-04-01T11:20:59.063Z,6.87
2023-04-01T11:24:04.382Z,5.60
2023-04-01T11:26:42.049Z,5.13
2023-04-01T11:29:44.387Z,5.67
2023-04-01T11:32:35.185Z,4.70
2023-04-01T11:35:27.860Z,4.00
2023-04-01T11:38:05.417Z,4.00
2023-04-01T11:40:41.206Z,4.40
2023-04-01T11:43:26.125Z,4.80
2023-04-01T11:46:07.431Z,4.70
2023-04-01T11:49:00.465Z,4.20
2023-04-01T11:51:42.646Z,4.90
2023-04-01T11:54:22.389Z,4.57
2023-04-01T11:57:09.011Z,4.70
2023-04-01T11:59:59.953Z,4.03
2023-04-01T12:02:36.952Z,4.83
2023-04-01T12:05:26.013Z,3.83
2023-04-01T12:08:06.206Z,4.37
2023-04-01T12:10:42.104Z,4.20
2023-04-01T12:13:23.275Z,3.93
2023-04-01T12:16:04.733Z,4.63
2023-04-01T12:18:41.196Z,4.37
2023-04-01T12:21:23.651Z,3.70
2023-04-01T12:24:15.497Z,4.07
2023-04-01T12:26:56.196Z,3.97
2023-04-01T12:29:51.483Z,3.47
2023-04-01T12:32:27.112Z,3.40
2023-04-01T12:35:15.210Z,3.33
2023-04-01T12:37:52.678Z,3.73
2023-04-01T12:40:41.661Z,3.10
2023-04-01T12:43:28.190Z,4.07
2023-04-01T12:46:03.084Z,4.40
2023-04-01T12:48:49.298Z,3.97
2023-04-01T12:51:39.113Z,3.43
2023-04-01T12:54:22.419Z,3.20
2023-04-01T12:57:05.400Z,3.23
2023-04-01T12:59:52.235Z,3.50
2023-04-01T13:02:33.271Z,3.13
2023-04-01T13:05:27.110Z,3.47
2023-04-01T13:08:08.216Z,3.37
2023-04-01T13:10:58.918Z,3.03
2023-04-01T13:13:42.580Z,3.10
2023-04-01T13:16:17.210Z,2.80
2023-04-01T13:18:59.548Z,3.40
2023-04-01T13:21:50.045Z,3.07
2023-04-01T13:24:33.232Z,3.17
2023-04-01T13:27:06.911Z,2.67
2023-04-01T13:29:41.059Z,3.10
2023-04-01T13:32:33.277Z,3.30
2023-04-01T13:35:23.227Z,3.20
2023-04-01T13:38:05.382Z,2.63
2023-04-01T13:40:42.757Z,2.43
2023-04-01T13:43:18.723Z,2.70
2023-04-01T13:46:23.324Z,2.60
2023-04-01T13:49:24.300Z,2.27
2023-04-01T13:52:17.038Z,2.40
2023-04-01T13:55:01.024Z,3.07
2023-04-01T13:57:44.873Z,2.80
2023-04-01T14:00:31.014Z,2.43
2023-04-01T14:03:16.103Z,2.40
2023-04-01T14:05:58.385Z,2.53
2023-04-01T14:08:43.990Z,2.63
2023-04-01T14:11:22.189Z,2.33
2023-04-01T14:14:04.054Z,2.63
2023-04-01T14:17:12.480Z,2.60
2023-04-01T14:20:09.232Z,2.50
2023-04-01T14:22:44.953Z,2.27
2023-04-01T14:25:35.015Z,2.20
2023-04-01T14:28:14.229Z,2.03
2023-04-01T14:31:18.129Z,2.20
2023-04-01T14:33:53.451Z,2.23
2023-04-01T14:36:50.082Z,2.70
2023-04-01T14:39:31.436Z,1.70
2023-04-01T14:42:21.942Z,1.90
2023-04-01T14:45:14.461Z,2.30
2023-04-01T14:47:48.465Z,2.10
2023-04-01T14:50:19.999Z,1.90
2023-04-01T14:52:59.068Z,1.70
2023-04-01T14:55:34.713Z,5.40
2023-04-01T14:58:11.772Z,1.60
2023-04-01T15:00:56.806Z,2.70
2023-04-01T15:03:31.729Z,1.50
2023-04-01T15:06:29.726Z,2.43
2023-04-01T15:09:06.668Z,2.20
2023-04-01T15:11:59.289Z,1.60
2023-04-01T15:14:45.985Z,1.97
2023-04-01T15:17:37.939Z,1.93
2023-04-01T15:20:44.053Z,2.50
2023-04-01T15:23:28.015Z,2.03
2023-04-01T15:26:18.479Z,2.30
2023-04-01T15:28:57.658Z,1.67
2023-04-01T15:31:31.675Z,1.93
2023-04-01T15:34:19.758Z,2.40
2023-04-01T15:36:56.778Z,2.37
2023-04-01T15:39:33.629Z,1.80
2023-04-01T15:42:21.995Z,2.30
2023-04-01T15:44:59.987Z,2.10
2023-04-01T15:47:37.529Z,2.20
2023-04-01T15:50:38.457Z,2.80
2023-04-01T15:53:19.722Z,2.30
2023-04-01T15:55:52.204Z,1.90
2023-04-01T15:58:35.397Z,2.67
2023-04-01T16:01:18.417Z,2.20
2023-04-01T16:03:56.608Z,2.10
2023-04-01T16:06:37.592Z,2.47
2023-04-01T16:09:21.892Z,2.00
2023-04-01T16:11:55.718Z,1.80
2023-04-01T16:14:35.652Z,2.20
2023-04-01T16:17:19.715Z,2.20
2023-04-01T16:19:54.978Z,2.07
2023-04-01T16:22:28.942Z,2.37
2023-04-01T16:25:13.716Z,2.00
2023-04-01T16:27:50.795Z,2.00
2023-04-01T16:30:39.327Z,2.10
2023-04-01T16:33:16.051Z,2.07
2023-04-01T16:35:48.318Z,2.10
2023-04-01T16:38:24.849Z,2.00
2023-04-01T16:41:03.129Z,1.93
2023-04-01T16:43:39.848Z,1.60
2023-04-01T16:46:29.662Z,2.00
2023-04-01T16:49:26.787Z,1.80
2023-04-01T16:51:59.771Z,2.27
2023-04-01T16:54:37.745Z,2.10
2023-04-01T16:57:18.835Z,1.93
2023-04-01T16:59:56.092Z,1.47
2023-04-01T17:02:28.580Z,1.60
2023-04-01T17:05:02.586Z,1.90
2023-04-01T17:07:40.394Z,1.67
2023-04-01T17:10:39.284Z,1.83
2023-04-01T17:13:30.618Z,2.20
2023-04-01T17:16:08.433Z,2.07
2023-04-01T17:18:50.082Z,2.30
2023-04-01T17:21:22.726Z,2.23
2023-04-01T17:23:55.054Z,1.97
2023-04-01T17:26:33.892Z,2.33
2023-04-01T17:29:12.826Z,2.10
2023-04-01T17:31:48.823Z,2.20
2023-04-01T17:34:39.711Z,2.23
2023-04-01T17:37:23.670Z,2.07
2023-04-01T17:40:08.187Z,1.97
2023-04-01T17:42:44.430Z,1.97
2023-04-01T17:45:21.653Z,1.57
2023-04-01T17:48:00.660Z,2.33
2023-04-01T17:50:46.578Z,1.90
2023-04-01T17:53:30.682Z,1.87
2023-04-01T17:56:11.175Z,1.70
2023-04-01T17:58:47.732Z,1.90
2023-04-01T18:01:28.516Z,2.13
2023-04-01T18:04:17.616Z,1.80
2023-04-01T18:07:10.389Z,2.20
2023-04-01T18:09:49.622Z,1.80
2023-04-01T18:12:26.917Z,2.00
2023-04-01T18:15:10.286Z,1.90
2023-04-01T18:17:51.791Z,1.70
2023-04-01T18:20:33.683Z,1.47
2023-04-01T18:23:08.600Z,1.60
2023-04-01T18:25:41.742Z,1.27
2023-04-01T18:28:23.015Z,1.87
2023-04-01T18:30:56.706Z,1.37
2023-04-01T18:33:31.302Z,1.47
2023-04-01T18:36:12.516Z,1.20
2023-04-01T18:38:47.734Z,1.73
2023-04-01T18:41:17.478Z,1.77
2023-04-01T18:43:59.413Z,1.63
2023-04-01T18:46:36.911Z,1.30
2023-04-01T18:49:13.991Z,1.57
2023-04-01T18:51:49.949Z,1.20
2023-04-01T18:54:27.064Z,2.23
2023-04-01T18:57:05.956Z,1.40
2023-04-01T18:59:41.312Z,1.20
2023-04-01T19:02:20.038Z,1.20
2023-04-01T19:04:53.017Z,1.40
2023-04-01T19:07:43.086Z,1.50
2023-04-01T19:10:22.273Z,0.97
2023-04-01T19:13:07.637Z,1.20
2023-04-01T19:15:43.733Z,1.27
2023-04-01T19:18:33.268Z,1.57
2023-04-01T19:21:07.393Z,1.43
2023-04-01T19:24:06.338Z,1.37
2023-04-01T19:26:40.320Z,1.60
2023-04-01T19:29:21.589Z,1.20
2023-04-01T19:32:01.236Z,1.20
2023-04-01T19:34:44.474Z,1.17
2023-04-01T19:37:22.601Z,1.30
2023-04-01T19:39:59.196Z,1.17
2023-04-01T19:42:38.631Z,1.20
2023-04-01T19:45:23.739Z,1.30
2023-04-01T19:48:02.503Z,1.20
2023-04-01T19:50:38.008Z,1.30
2023-04-01T19:53:19.084Z,1.57
2023-04-01T19:55:52.652Z,2.03
2023-04-01T19:58:29.709Z,1.40
2023-04-01T20:01:00.934Z,1.33
2023-04-01T20:03:39.631Z,1.47
2023-04-01T20:06:17.875Z,1.00
2023-04-01T20:09:00.487Z,1.20
2023-04-01T20:11:40.100Z,1.50
2023-04-01T20:14:20.400Z,1.20
2023-04-01T20:16:55.829Z,1.40
2023-04-01T20:19:30.788Z,1.00
2023-04-01T20:22:01.476Z,1.40
2023-04-01T20:24:34.367Z,1.53
2023-04-01T20:27:07.068Z,1.43
2023-04-01T20:29:48.597Z,1.00
2023-04-01T20:32:37.926Z,1.20
2023-04-01T20:35:37.820Z,1.23
2023-04-01T20:38:27.992Z,1.23
2023-04-01T20:41:04.278Z,1.20
2023-04-01T20:43:54.902Z,1.23
2023-04-01T20:46:29.424Z,1.50
2023-04-01T20:49:21.618Z,1.23
2023-04-01T20:51:55.825Z,1.00
2023-04-01T20:54:43.730Z,1.03
2023-04-01T20:57:15.634Z,1.13
2023-04-01T20:59:57.452Z,1.00
2023-04-01T21:02:49.166Z,1.83
2023-04-01T21:05:49.075Z,1.40
2023-04-01T21:08:27.356Z,1.10
2023-04-01T21:11:03.358Z,1.10
2023-04-01T21:13:48.452Z,1.30
2023-04-01T21:16:28.158Z,1.40
2023-04-01T21:19:19.004Z,1.70
2023-04-01T21:22:08.827Z,1.37
2023-04-01T21:24:59.067Z,1.33
2023-04-01T21:27:54.925Z,1.37
2023-04-01T21:30:39.273Z,1.23
2023-04-01T21:33:18.497Z,1.37
2023-04-01T21:36:00.667Z,1.23
2023-04-01T21:38:44.148Z,1.17
2023-04-01T21:41:42.171Z,1.00
2023-04-01T21:44:37.037Z,1.20
2023-04-01T21:47:33.955Z,1.20
2023-04-01T21:50:37.384Z,1.33
2023-04-01T21:53:44.622Z,1.20
2023-04-01T21:56:37.238Z,1.27
2023-04-01T21:59:26.996Z,1.60
2023-04-01T22:02:21.079Z,1.10
2023-04-01T22:04:59.615Z,1.03
2023-04-01T22:07:35.551Z,2.90
2023-04-01T22:10:16.882Z,1.50
2023-04-01T22:12:52.360Z,1.50
2023-04-01T22:15:30.481Z,1.10
2023-04-01T22:18:05.656Z,1.40
2023-04-01T22:20:41.845Z,1.17
2023-04-01T22:23:22.033Z,0.90
2023-04-01T22:25:59.697Z,1.00
2023-04-01T22:28:33.802Z,1.30
2023-04-01T22:31:02.897Z,1.17
2023-04-01T22:33:35.941Z,1.20
2023-04-01T22:36:13.867Z,1.43
2023-04-01T22:38:58.749Z,1.20
2023-04-01T22:41:42.227Z,1.13
2023-04-01T22:44:22.288Z,1.30
2023-04-01T22:47:00.378Z,1.23
2023-04-01T22:49:34.521Z,1.30
2023-04-01T22:52:07.642Z,1.03
2023-04-01T22:54:42.373Z,1.00
2023-04-01T22:57:17.286Z,1.03
2023-04-01T22:59:53.327Z,1.10
2023-04-01T23:02:26.706Z,1.20
2023-04-01T23:04:58.329Z,0.83
2023-04-01T23:07:47.900Z,0.80
2023-04-01T23:10:22.099Z,1.10
2023-04-01T23:12:53.707Z,1.20
2023-04-01T23:15:22.680Z,1.20
2023-04-01T23:18:01.670Z,1.20
2023-04-01T23:20:42.198Z,0.60
2023-04-01T23:23:22.964Z,0.90
2023-04-01T23:26:00.337Z,1.10
2023-04-01T23:28:43.900Z,1.00
2023-04-01T23:31:45.408Z,1.10
2023-04-01T23:34:30.137Z,1.17
2023-04-01T23:37:01.098Z,0.70
2023-04-01T23:39:33.722Z,0.80
2023-04-01T23:42:06.050Z,1.00
2023-04-01T23:44:37.465Z,1.20
2023-04-01T23:47:07.167Z,1.10
2023-04-01T23:49:38.975Z,0.80
2023-04-01T23:52:15.151Z,0.80
2023-04-01T23:54:46.354Z,0.93
2023-04-01T23:57:16.490Z,1.03
2023-04-01T23:59:45.698Z,0.60
